• Join FlightAware (Why Join?)
  • Login
  • US Flag 
09:07PM EDT


 

Airport Tracker/Info


-or-


 

Live Flight TrackerFlight Track Log ✈ DAL1979 ✈ 09-May-2013 ✈ KMCO - KMSP

Flight Track Log - Related Links

Times and Time Zones

All times are in EDT time to prevent confusion due to time zone crossing. See the DAL1979 flight status page for this flight to view local times or setup timezone preferences in your user account.

Time Position Orientation Groundspeed Altitude Reporting Facility
EDT Latitude Longitude Course Direction KTS MPH feet Rate Location/Type
04:05PM 28.4490 -81.2970 360° North 182 209 1,000  Level FlightAware
04:05PM 28.4710 -81.3030 347° North 196 226 1,800 1,380 Climbing FlightAware
04:05PM 28.5030 -81.3080 352° North 248 285 2,300 1,500 Climbing FlightAware
04:06PM 28.5300 -81.3130 351° North 260 299 3,200 2,220 Climbing FlightAware
04:06PM 28.5510 -81.3190 346° North 265 305 3,800 2,400 Climbing FlightAware
04:06PM 28.5650 -81.3330 319° Northwest 260 299 4,400 2,580 Climbing FlightAware
04:07PM 28.5710 -81.3510 291° West 265 305 5,100 2,820 Climbing FlightAware
04:07PM 28.5700 -81.4070 269° West 264 304 7,000 2,820 Climbing FlightAware
04:08PM 28.5640 -81.4280 252° West 263 303 7,700 2,520 Climbing FlightAware
04:08PM 28.5480 -81.4650 244° Southwest 268 308 8,900 2,460 Climbing FlightAware
04:08PM 28.5340 -81.4970 244° Southwest 272 313 10,000 2,280 Climbing FlightAware
04:09PM 28.5070 -81.5560 243° Southwest 284 327 11,600 2,160 Climbing FlightAware
04:10PM 28.4940 -81.6130 255° West 285 328 13,100 2,220 Climbing FlightAware
04:11PM 28.4880 -81.6760 264° West 291 335 14,600 2,100 Climbing FlightAware
04:11PM 28.4810 -81.7440 263° West 297 342 16,100 1,860 Climbing FlightAware
04:12PM 28.4760 -81.8080 265° West 307 353 17,300 1,800 Climbing FlightAware
04:13PM 28.4700 -81.8710 264° West 313 360 18,500 1,620 Climbing FlightAware
04:13PM 28.4620 -81.9490 263° West 329 379 19,600 1,080 Climbing FlightAware
04:14PM 28.4560 -82.0140 264° West 353 406 20,100 720 Climbing FlightAware
04:15PM 28.4490 -82.0860 264° West 375 432 20,500 600 Climbing FlightAware
04:15PM 28.4420 -82.1700 265° West 403 464 20,900 600 Climbing FlightAware
04:16PM 28.4490 -82.2240 278° West 414 476 21,200 1,080 Climbing FlightAware
04:16PM 28.4700 -82.3080 286° West 422 486 22,100 1,320 Climbing FlightAware
04:17PM 28.4940 -82.4050 286° West 430 495 23,100 1,260 Climbing FlightAware
04:18PM 28.5420 -82.4760 308° West 438 504 23,900 1,260 Climbing FlightAware
04:18PM 28.6050 -82.5150 331° Northwest 444 511 24,700 1,260 Climbing FlightAware
04:19PM 28.6990 -82.5680 334° Northwest 450 518 25,700 1,200 Climbing FlightAware
04:20PM 28.7740 -82.6110 333° Northwest 454 522 26,500 1,080 Climbing FlightAware
04:21PM 28.8520 -82.6560 333° Northwest 450 518 27,300 960 Climbing FlightAware
04:21PM 28.9260 -82.6980 334° Northwest 453 521 27,900 960 Climbing FlightAware
04:22PM 29.0120 -82.7480 333° Northwest 462 532 28,700 1,200 Climbing FlightAware
04:23PM 29.0940 -82.7950 333° Northwest 459 528 29,600 960 Climbing FlightAware
04:23PM 29.1690 -82.8390 333° Northwest 461 531 30,000 300 Climbing FlightAware
04:24PM 29.2380 -82.8790 333° Northwest 460 529 30,000  Level FlightAware
04:25PM 29.3230 -82.9290 333° Northwest 461 531 30,000  Level FlightAware
04:26PM 29.4170 -82.9840 333° Northwest 451 519 30,000  Level FlightAware
04:26PM 29.4950 -83.0320 332° Northwest 451 519 30,000  Level FlightAware
04:27PM 29.5580 -83.0700 332° Northwest 451 519 30,000  Level FlightAware
04:28PM 29.6200 -83.1090 331° Northwest 451 519 30,000 780 Level FlightAware
04:31PM 30.0120 -83.3370 333° Northwest 33,800 900 Climbing FlightAware
04:32PM 30.1130 -83.3980 332° Northwest 437 503 34,000 120 Climbing FlightAware
04:33PM 30.1730 -83.4350 332° Northwest 437 503 34,000  Level FlightAware
04:33PM 30.2660 -83.4910 333° Northwest 437 503 34,000  Level FlightAware
04:34PM 30.3270 -83.5290 332° Northwest 437 503 34,000  Level FlightAware
04:35PM 30.4150 -83.5820 333° Northwest 34,000  Level FlightAware
04:35PM 30.4910 -83.6280 332° Northwest 441 507 34,000  Level FlightAware
04:36PM 30.5690 -83.6760 332° Northwest 441 507 34,000  Level FlightAware
04:37PM 30.6350 -83.7160 332° Northwest 442 509 34,000  Level FlightAware
04:38PM 30.6750 -83.7410 332° Northwest 443 510 34,000  Level FlightAware
04:39PM 30.8290 -83.8360 332° Northwest 444 511 34,000  Level FlightAware
04:39PM 30.8960 -83.8790 331° Northwest 444 511 34,000  Level FlightAware
04:41PM 30.8800 -83.8690 152° Southeast 444 511 34,000  Level FlightAware
04:42PM 30.9410 -83.9080 331° Northwest 444 511 34,000  Level FlightAware
04:42PM 31.0020 -83.9480 331° Northwest 444 511 34,000  Level FlightAware
04:43PM 31.0640 -83.9870 332° Northwest 444 511 34,000  Level FlightAware
04:44PM 31.1250 -84.0270 331° Northwest 444 511 34,000  Level FlightAware
04:44PM 31.1700 -84.0570 330° Northwest 444 511 34,000  Level FlightAware
04:45PM 31.2320 -84.0960 332° Northwest 444 511 34,000  Level FlightAware
04:46PM 31.3080 -84.1460 331° Northwest 444 511 34,000  Level FlightAware
04:46PM 31.3690 -84.1850 331° Northwest 444 511 34,000  Level FlightAware
04:47PM 31.4300 -84.2250 331° Northwest 444 511 34,000  Level FlightAware
04:48PM 31.4910 -84.2650 331° Northwest 444 511 34,000  Level FlightAware
04:48PM 31.5520 -84.3050 331° Northwest 444 511 34,000  Level FlightAware
04:49PM 31.6290 -84.3540 332° Northwest 444 511 34,000  Level FlightAware
04:50PM 31.6900 -84.3940 331° Northwest 444 511 34,000  Level FlightAware
04:50PM 31.7510 -84.4340 331° Northwest 444 511 34,000  Level FlightAware
04:53PM 32.3840 -84.8170 333° Northwest 444 511 34,000  Level FlightAware
04:53PM 32.4520 -84.8600 332° Northwest 444 511 34,000  Level FlightAware
04:54PM 32.5380 -84.9160 331° Northwest 445 512 34,000  Level FlightAware
04:55PM 32.6510 -84.9910 331° Northwest 446 513 34,000  Level FlightAware
04:56PM 32.7550 -85.0560 332° Northwest 455 524 34,000  Level FlightAware
04:57PM 32.8310 -85.1060 331° Northwest 456 525 34,000  Level FlightAware
04:57PM 32.9060 -85.1550 331° Northwest 456 525 34,000  Level FlightAware
04:58PM 32.9990 -85.2150 332° Northwest 458 527 34,000  Level FlightAware
04:59PM 33.0750 -85.2650 331° Northwest 461 531 34,000  Level FlightAware
05:00PM 33.1660 -85.3240 332° Northwest 461 531 34,000  Level FlightAware
05:01PM 33.2610 -85.3870 331° Northwest 461 531 34,000  Level FlightAware
05:02PM 33.3820 -85.4660 331° Northwest 462 532 34,000  Level FlightAware
05:03PM 33.4800 -85.5310 331° Northwest 462 532 34,000  Level FlightAware
05:03PM 33.5590 -85.5830 331° Northwest 463 533 34,000  Level FlightAware
05:04PM 33.6240 -85.6260 331° Northwest 463 533 34,000  Level FlightAware
05:05PM 33.7090 -85.6820 331° Northwest 464 534 34,000  Level FlightAware
05:05PM 33.7880 -85.7350 331° Northwest 464 534 34,000  Level FlightAware
05:06PM 33.8520 -85.7780 331° Northwest 464 534 34,000  Level FlightAware
05:07PM 33.9358 -85.8330 331° Northwest 461 531 34,000  Level FlightAware ADS-B
05:07PM 33.9974 -85.8741 331° Northwest 460 529 34,000  Level FlightAware ADS-B
05:08PM 34.0539 -85.9119 331° Northwest 459 528 34,000  Level FlightAware ADS-B
05:08PM 34.1102 -85.9495 331° Northwest 459 528 34,000  Level FlightAware ADS-B
05:09PM 34.1711 -85.9902 331° Northwest 457 526 34,000  Level FlightAware ADS-B
05:09PM 34.2335 -86.0322 331° Northwest 457 526 34,000  Level FlightAware ADS-B
05:10PM 34.3233 -86.0925 331° Northwest 456 525 34,000  Level FlightAware ADS-B
05:11PM 34.3808 -86.1313 331° Northwest 455 524 34,000  Level FlightAware ADS-B
05:11PM 34.4516 -86.1791 331° Northwest 453 521 34,000  Level FlightAware ADS-B
05:14PM 34.7390 -86.3730 331° Northwest 450 518 34,000  Level FlightAware
05:15PM 34.8280 -86.4350 330° Northwest 450 518 34,000  Level FlightAware
05:15PM 34.8890 -86.4780 330° Northwest 450 518 34,000  Level FlightAware
05:16PM 34.9650 -86.5320 330° Northwest 450 518 34,000  Level FlightAware
05:16PM 35.0283 -86.5711 333° Northwest 451 519 34,000  Level FlightAware ADS-B
05:17PM 35.0834 -86.6088 331° Northwest 452 520 34,000  Level FlightAware ADS-B
05:18PM 35.1410 -86.6480 331° Northwest 453 521 34,000  Level FlightAware
05:18PM 35.1702 -86.6683 330° Northwest 453 521 34,000  Level FlightAware ADS-B
05:18PM 35.2266 -86.7070 331° Northwest 454 522 34,000  Level FlightAware ADS-B
05:19PM 35.2834 -86.7462 331° Northwest 454 522 34,000  Level FlightAware ADS-B
05:19PM 35.3388 -86.7844 331° Northwest 455 524 34,000  Level FlightAware ADS-B
05:20PM 35.3948 -86.8230 331° Northwest 455 524 34,000  Level FlightAware ADS-B
05:20PM 35.4533 -86.8634 331° Northwest 456 525 34,000  Level FlightAware ADS-B
05:21PM 35.5354 -86.9201 331° Northwest 457 526 34,000  Level FlightAware ADS-B
05:22PM 35.5921 -86.9595 331° Northwest 460 529 34,000  Level FlightAware ADS-B
05:22PM 35.6509 -87.0006 330° Northwest 461 531 34,000  Level FlightAware ADS-B
05:23PM 35.7690 -87.0830 330° Northwest 461 531 34,000  Level FlightAware
05:24PM 35.8440 -87.1340 331° Northwest 461 531 34,000  Level FlightAware
05:25PM 35.9190 -87.1870 330° Northwest 460 529 34,000  Level FlightAware
05:25PM 35.9920 -87.2390 330° Northwest 459 528 34,000  Level FlightAware
05:26PM 36.0730 -87.2950 331° Northwest 458 527 34,000  Level FlightAware
05:27PM 36.1460 -87.3470 330° Northwest 457 526 34,000  Level FlightAware
05:27PM 36.2310 -87.4060 331° Northwest 455 524 34,000  Level FlightAware
05:28PM 36.3060 -87.4590 330° Northwest 455 524 34,000  Level FlightAware
05:29PM 36.3870 -87.5170 330° Northwest 456 525 34,000  Level FlightAware
05:29PM 36.4580 -87.5670 330° Northwest 457 526 34,000  Level FlightAware
05:30PM 36.5440 -87.6290 330° Northwest 457 526 34,000  Level FlightAware
05:31PM 36.6140 -87.6890 325° Northwest 458 527 34,000  Level FlightAware
05:32PM 36.6840 -87.7480 326° Northwest 459 528 34,000  Level FlightAware
05:32PM 36.7600 -87.8130 326° Northwest 459 528 34,000  Level FlightAware
05:33PM 36.8260 -87.8800 321° Northwest 458 527 34,000  Level FlightAware
05:34PM 36.8900 -87.9460 320° Northwest 458 527 34,000  Level FlightAware
05:34PM 36.9550 -88.0120 321° Northwest 456 525 34,000  Level FlightAware
05:35PM 37.0310 -88.0940 319° Northwest 454 522 34,000  Level FlightAware
05:36PM 37.1030 -88.1670 321° Northwest 458 527 34,000  Level FlightAware
05:36PM 37.1760 -88.2230 329° Northwest 460 529 34,000  Level FlightAware
05:37PM 37.2400 -88.2720 329° Northwest 460 529 34,000  Level FlightAware
05:38PM 37.3340 -88.3330 333° Northwest 462 532 34,000  Level FlightAware
05:39PM 37.4120 -88.3880 331° Northwest 461 531 34,000  Level FlightAware
05:39PM 37.4930 -88.4450 331° Northwest 462 532 34,000  Level FlightAware
05:40PM 37.5670 -88.4990 330° Northwest 461 531 34,000  Level FlightAware
05:41PM 37.6510 -88.5580 331° Northwest 462 532 34,000  Level FlightAware
05:41PM 37.7280 -88.6130 331° Northwest 463 533 34,000  Level FlightAware
05:42PM 37.8030 -88.6670 330° Northwest 464 534 34,000  Level FlightAware
05:43PM 37.8870 -88.7270 331° Northwest 464 534 34,000  Level FlightAware
05:43PM 37.9610 -88.7810 330° Northwest 465 535 34,000  Level FlightAware
05:44PM 38.0450 -88.8420 330° Northwest 464 534 34,000  Level FlightAware
05:45PM 38.1190 -88.8950 331° Northwest 465 535 34,000  Level FlightAware
05:46PM 38.1930 -88.9490 330° Northwest 466 536 34,000  Level FlightAware
05:46PM 38.2710 -89.0060 330° Northwest 465 535 34,000  Level FlightAware
05:47PM 38.3470 -89.0610 330° Northwest 465 535 34,000  Level FlightAware
05:48PM 38.4240 -89.1180 330° Northwest 466 536 34,000  Level FlightAware
05:48PM 38.4990 -89.1730 330° Northwest 466 536 34,000  Level FlightAware
05:49PM 38.5800 -89.2340 330° Northwest 466 536 34,000  Level FlightAware
05:50PM 38.6680 -89.2980 330° Northwest 464 534 34,000  Level FlightAware
05:50PM 38.7460 -89.3560 330° Northwest 464 534 34,000  Level FlightAware
05:51PM 38.8310 -89.4200 330° Northwest 464 534 34,000  Level FlightAware
05:52PM 38.9100 -89.4810 329° Northwest 464 534 34,000  Level FlightAware
05:53PM 39.0000 -89.5460 331° Northwest 465 535 34,000  Level FlightAware
05:53PM 39.0670 -89.5960 330° Northwest 466 536 34,000  Level FlightAware
05:54PM 39.1600 -89.6660 330° Northwest 467 537 34,000  Level FlightAware
05:55PM 39.2240 -89.7150 329° Northwest 468 539 34,000  Level FlightAware
05:56PM 39.3080 -89.7790 329° Northwest 468 539 34,000  Level FlightAware
05:56PM 39.4000 -89.8490 330° Northwest 469 540 34,000  Level FlightAware
05:57PM 39.4580 -89.8920 330° Northwest 469 540 34,000  Level FlightAware
05:58PM 39.5410 -89.9570 329° Northwest 469 540 34,000  Level FlightAware
05:58PM 39.6290 -90.0240 330° Northwest 470 541 34,000  Level FlightAware
05:59PM 39.7140 -90.0890 330° Northwest 470 541 34,000  Level FlightAware
06:00PM 39.7930 -90.1500 329° Northwest 469 540 34,000  Level FlightAware
06:00PM 39.8630 -90.2050 329° Northwest 468 539 34,000  Level FlightAware
06:01PM 39.9430 -90.2670 329° Northwest 467 537 34,000  Level FlightAware
06:02PM 40.0180 -90.3260 329° Northwest 466 536 34,000  Level FlightAware
06:03PM 40.1260 -90.4110 329° Northwest 464 534 34,000  Level FlightAware
06:04PM 40.2070 -90.4750 329° Northwest 465 535 34,000  Level FlightAware
06:04PM 40.2820 -90.5340 329° Northwest 465 535 34,000  Level FlightAware
06:05PM 40.3480 -90.5870 329° Northwest 465 535 34,000  Level FlightAware
06:06PM 40.4350 -90.6550 329° Northwest 464 534 34,000  Level FlightAware
06:06PM 40.5030 -90.7110 328° Northwest 464 534 34,000  Level FlightAware
06:07PM 40.5840 -90.7740 329° Northwest 466 536 34,000  Level FlightAware
06:08PM 40.6680 -90.8420 328° Northwest 467 537 34,000  Level FlightAware
06:08PM 40.7370 -90.8980 328° Northwest 469 540 34,000  Level FlightAware
06:09PM 40.8210 -90.9650 329° Northwest 469 540 34,000  Level FlightAware
06:10PM 40.8980 -91.0280 328° Northwest 469 540 34,000  Level FlightAware
06:11PM 40.9820 -91.0960 329° Northwest 470 541 34,000  Level FlightAware
06:11PM 41.0550 -91.1560 328° Northwest 471 542 34,000  Level FlightAware
06:12PM 41.1140 -91.2040 328° Northwest 471 542 34,000  Level FlightAware
06:12PM 41.1970 -91.2720 328° Northwest 474 545 34,000  Level FlightAware
06:13PM 41.2860 -91.3450 328° Northwest 474 545 34,000  Level FlightAware
06:14PM 41.3590 -91.4060 328° Northwest 475 547 34,000  Level FlightAware
06:15PM 41.4490 -91.4800 328° Northwest 476 548 34,000  Level FlightAware
06:15PM 41.5120 -91.5330 328° Northwest 476 548 34,000  Level FlightAware
06:16PM 41.6080 -91.6120 328° Northwest 476 548 34,000  Level FlightAware
06:17PM 41.6840 -91.6760 328° Northwest 477 549 34,000  Level FlightAware
06:18PM 41.7680 -91.7460 328° Northwest 478 550 34,000  Level FlightAware
06:18PM 41.8420 -91.8080 328° Northwest 478 550 34,000  Level FlightAware
06:19PM 41.9280 -91.8810 328° Northwest 478 550 34,000  Level FlightAware
06:20PM 42.0030 -91.9440 328° Northwest 478 550 34,000  Level FlightAware
06:20PM 42.0780 -92.0080 328° Northwest 479 551 34,000  Level FlightAware
06:21PM 42.1520 -92.0710 328° Northwest 476 548 34,000  Level FlightAware
06:22PM 42.2350 -92.1410 328° Northwest 471 542 34,000  Level FlightAware
06:22PM 42.3170 -92.2110 328° Northwest 466 536 34,000  Level FlightAware
06:23PM 42.3920 -92.2750 328° Northwest 463 533 34,000  Level FlightAware
06:24PM 42.4630 -92.3370 327° Northwest 461 531 34,000  Level FlightAware
06:25PM 42.5390 -92.4040 327° Northwest 458 527 34,000  Level FlightAware
06:25PM 42.6110 -92.4700 326° Northwest 458 527 34,000  Level FlightAware
06:26PM 42.6940 -92.5440 327° Northwest 460 529 34,000  Level FlightAware
06:27PM 42.7650 -92.6090 326° Northwest 460 529 34,000  Level FlightAware
06:27PM 42.8340 -92.6740 325° Northwest 462 532 34,000  Level FlightAware
06:28PM 42.9120 -92.7470 326° Northwest 463 533 34,000 -540 Level FlightAware
06:29PM 42.9810 -92.8120 325° Northwest 463 533 33,300 -2,220 Descending FlightAware
06:29PM 43.0540 -92.8800 326° Northwest 473 544 31,100 -3,360 Descending FlightAware
06:30PM 43.1460 -92.9430 333° Northwest 481 554 28,600 -3,060 Descending FlightAware
06:31PM 43.2320 -92.9700 347° North 482 555 26,800 -2,160 Descending FlightAware
06:32PM 43.3260 -92.9940 349° North 461 531 25,600 -1,560 Descending FlightAware
06:32PM 43.4090 -93.0170 349° North 448 516 24,600 -1,380 Descending FlightAware
06:33PM 43.4900 -93.0380 349° North 431 496 23,800 -1,200 Descending FlightAware
06:34PM 43.5780 -93.0620 349° North 427 491 22,900 -1,200 Descending FlightAware
06:34PM 43.6570 -93.0830 349° North 420 483 22,100 -1,800 Descending FlightAware
06:35PM 43.7380 -93.1050 349° North 409 471 20,400 -2,580 Descending FlightAware
06:36PM 43.8110 -93.1250 349° North 401 461 18,500 -2,700 Descending FlightAware
06:36PM 43.8960 -93.1480 349° North 384 442 16,600 -2,580 Descending FlightAware
06:37PM 43.9620 -93.1660 349° North 374 430 14,900 -2,640 Descending FlightAware
06:38PM 44.0310 -93.1840 349° North 364 419 13,100 -2,580 Descending FlightAware
06:39PM 44.1030 -93.2040 349° North 350 403 11,300 -2,220 Descending FlightAware
06:39PM 44.1650 -93.2200 350° North 349 402 10,000 -1,200 Descending FlightAware
06:40PM 44.2130 -93.2320 350° North 343 395 9,900 -120 Descending FlightAware
06:40PM 44.2780 -93.2300 North 343 395 9,900  Level FlightAware
06:41PM 44.3240 -93.2260 North 330 380 9,900  Level FlightAware
06:41PM 44.3670 -93.2220 North 298 343 9,900 -120 Level FlightAware
06:42PM 44.4010 -93.2170 North 273 314 9,800 -480 Descending FlightAware
06:42PM 44.4180 -93.2080 21° North 267 307 9,600 -1,080 Descending FlightAware
06:43PM 44.4490 -93.1820 31° Northeast 261 300 9,000 -1,200 Descending FlightAware
06:43PM 44.4760 -93.1600 30° Northeast 256 295 8,500 -1,200 Descending FlightAware
06:44PM 44.5070 -93.1240 40° Northeast 251 289 7,800 -1,320 Descending FlightAware
06:44PM 44.5210 -93.1070 41° Northeast 251 289 7,400 -1,200 Descending FlightAware
06:44PM 44.5470 -93.0740 42° Northeast 249 287 6,900 -1,140 Descending FlightAware
06:45PM 44.5730 -93.0580 24° Northeast 246 283 6,400 -1,140 Descending FlightAware
06:45PM 44.6040 -93.0430 19° North 241 277 5,900 -840 Descending FlightAware
06:45PM 44.6200 -93.0350 20° North 236 272 5,800 -780 Descending FlightAware
06:46PM 44.6420 -93.0120 37° Northeast 230 265 5,400 -780 Descending FlightAware
06:46PM 44.6630 -92.9810 46° Northeast 208 239 5,100 -900 Descending FlightAware
06:47PM 44.6780 -92.9550 51° Northeast 190 219 4,600 -1,200 Descending FlightAware
06:47PM 44.6860 -92.9420 49° Northeast 187 215 4,300 -1,200 Descending FlightAware
06:47PM 44.6960 -92.9340 30° Northeast 186 214 4,000 -1,200 Descending FlightAware
06:47PM 44.7020 -92.9330 North 187 215 3,900 -240 Descending FlightAware
06:48PM 44.7220 -92.9450 337° Northwest 196 226 3,900  Level FlightAware
06:48PM 44.7410 -92.9610 329° Northwest 197 227 3,900  Level FlightAware
06:49PM 44.7640 -92.9820 327° Northwest 206 237 3,900  Level FlightAware
06:49PM 44.7790 -93.0120 305° West 215 247 3,900 -480 Level FlightAware
06:50PM 44.7950 -93.0480 302° West 218 251 3,500 -1,020 Descending FlightAware
06:50PM 44.8110 -93.0840 302° West 206 237 2,900 -1,140 Descending FlightAware
06:51PM 44.8220 -93.1090 302° West 178 205 2,500 -1,080 Descending FlightAware
06:51PM 44.8290 -93.1230 305° West 161 185 2,200 -960 Descending FlightAware
06:51PM 44.8400 -93.1480 302° West 139 160 1,800 -780 Descending FlightAware
06:52PM 44.8480 -93.1660 302° West 139 160 1,500 -780 Descending FlightAware
06:52PM 44.8590 -93.1900 303° West 148 170 1,100 -900 Descending FlightAware
06:53PM 44.8680 -93.2110 301° West 143 165 700 -960 Descending FlightAware